sensor_id;sensor_type;location;lat;lon;timestamp;pressure;altitude;pressure_sealevel;temperature;humidity
20710;BME280;10516;51.518;9.864;2022-12-11T00:01:18;98254.63;;;1.06;86.48
20710;BME280;10516;51.518;9.864;2022-12-11T00:03:45;98233.81;;;1.05;86.70
20710;BME280;10516;51.518;9.864;2022-12-11T00:06:13;98249.56;;;0.85;87.11
20710;BME280;10516;51.518;9.864;2022-12-11T00:08:39;98236.22;;;1.26;86.57
20710;BME280;10516;51.518;9.864;2022-12-11T00:11:10;98240.66;;;1.06;86.81
20710;BME280;10516;51.518;9.864;2022-12-11T00:13:35;98247.53;;;1.26;86.79
20710;BME280;10516;51.518;9.864;2022-12-11T00:16:01;98229.53;;;1.17;86.62
20710;BME280;10516;51.518;9.864;2022-12-11T00:18:26;98233.19;;;1.09;86.01
20710;BME280;10516;51.518;9.864;2022-12-11T00:20:52;98243.09;;;0.81;86.30
20710;BME280;10516;51.518;9.864;2022-12-11T00:23:17;98227.13;;;0.50;85.64
20710;BME280;10516;51.518;9.864;2022-12-11T00:25:44;98217.84;;;0.80;85.69
20710;BME280;10516;51.518;9.864;2022-12-11T00:28:19;98235.41;;;1.19;86.91
20710;BME280;10516;51.518;9.864;2022-12-11T00:30:45;98225.50;;;1.21;86.39
20710;BME280;10516;51.518;9.864;2022-12-11T00:33:12;98217.00;;;1.25;86.27
20710;BME280;10516;51.518;9.864;2022-12-11T00:35:43;98224.06;;;1.31;85.80
20710;BME280;10516;51.518;9.864;2022-12-11T00:38:16;98241.66;;;1.37;86.00
20710;BME280;10516;51.518;9.864;2022-12-11T00:40:42;98226.69;;;1.31;85.80
20710;BME280;10516;51.518;9.864;2022-12-11T00:43:08;98242.88;;;1.41;85.99
20710;BME280;10516;51.518;9.864;2022-12-11T00:45:37;98240.22;;;1.55;85.20
20710;BME280;10516;51.518;9.864;2022-12-11T00:48:05;98225.94;;;1.11;85.31
20710;BME280;10516;51.518;9.864;2022-12-11T00:50:30;98223.63;;;1.47;85.58
20710;BME280;10516;51.518;9.864;2022-12-11T00:52:56;98222.22;;;1.45;85.49
20710;BME280;10516;51.518;9.864;2022-12-11T00:55:21;98233.75;;;1.50;85.43
20710;BME280;10516;51.518;9.864;2022-12-11T00:57:50;98232.56;;;1.07;85.44
20710;BME280;10516;51.518;9.864;2022-12-11T01:00:16;98238.56;;;0.29;83.14
20710;BME280;10516;51.518;9.864;2022-12-11T01:02:41;98255.59;;;0.79;85.91
20710;BME280;10516;51.518;9.864;2022-12-11T01:05:08;98252.78;;;0.00;85.13
20710;BME280;10516;51.518;9.864;2022-12-11T01:07:34;98248.00;;;0.11;85.82
20710;BME280;10516;51.518;9.864;2022-12-11T01:09:59;98240.28;;;1.02;87.60
20710;BME280;10516;51.518;9.864;2022-12-11T01:12:43;98233.19;;;1.35;86.65
20710;BME280;10516;51.518;9.864;2022-12-11T01:15:09;98210.53;;;1.21;85.85
20710;BME280;10516;51.518;9.864;2022-12-11T01:17:36;98238.44;;;-0.10;83.63
20710;BME280;10516;51.518;9.864;2022-12-11T01:20:03;98250.03;;;-0.66;85.22
20710;BME280;10516;51.518;9.864;2022-12-11T01:22:30;98258.25;;;-0.69;86.37
20710;BME280;10516;51.518;9.864;2022-12-11T01:24:55;98249.00;;;0.10;89.88
20710;BME280;10516;51.518;9.864;2022-12-11T01:27:21;98254.41;;;0.82;88.97
20710;BME280;10516;51.518;9.864;2022-12-11T01:29:46;98236.22;;;0.93;87.39
20710;BME280;10516;51.518;9.864;2022-12-11T01:32:11;98263.72;;;0.97;87.77
20710;BME280;10516;51.518;9.864;2022-12-11T01:34:37;98246.94;;;1.31;86.79
20710;BME280;10516;51.518;9.864;2022-12-11T01:37:03;98253.16;;;1.49;85.76
20710;BME280;10516;51.518;9.864;2022-12-11T01:39:29;98235.19;;;1.27;85.87
20710;BME280;10516;51.518;9.864;2022-12-11T01:41:59;98251.56;;;1.48;85.49
20710;BME280;10516;51.518;9.864;2022-12-11T01:46:51;98237.41;;;1.36;85.95
20710;BME280;10516;51.518;9.864;2022-12-11T01:49:19;98245.09;;;1.05;86.53
20710;BME280;10516;51.518;9.864;2022-12-11T01:51:58;98270.78;;;1.03;84.63
20710;BME280;10516;51.518;9.864;2022-12-11T01:54:26;98250.78;;;0.89;87.04
20710;BME280;10516;51.518;9.864;2022-12-11T01:56:54;98251.16;;;0.60;87.70
20710;BME280;10516;51.518;9.864;2022-12-11T01:59:23;98259.03;;;0.60;86.27
20710;BME280;10516;51.518;9.864;2022-12-11T02:01:58;98259.28;;;1.17;87.14
20710;BME280;10516;51.518;9.864;2022-12-11T02:04:25;98247.34;;;0.89;84.14
20710;BME280;10516;51.518;9.864;2022-12-11T02:06:52;98260.25;;;1.16;85.57
20710;BME280;10516;51.518;9.864;2022-12-11T02:09:21;98268.56;;;1.39;85.61
20710;BME280;10516;51.518;9.864;2022-12-11T02:14:27;98264.53;;;-0.36;82.09
20710;BME280;10516;51.518;9.864;2022-12-11T02:22:26;98250.28;;;0.33;83.27
20710;BME280;10516;51.518;9.864;2022-12-11T02:25:08;98256.44;;;0.80;85.13
20710;BME280;10516;51.518;9.864;2022-12-11T02:27:44;98249.94;;;-0.11;83.90
20710;BME280;10516;51.518;9.864;2022-12-11T02:30:13;98246.88;;;-0.15;84.78
20710;BME280;10516;51.518;9.864;2022-12-11T02:32:52;98253.59;;;-0.74;83.92
20710;BME280;10516;51.518;9.864;2022-12-11T02:35:22;98241.78;;;-1.19;85.48
20710;BME280;10516;51.518;9.864;2022-12-11T02:37:55;98242.34;;;-1.23;86.27
20710;BME280;10516;51.518;9.864;2022-12-11T02:40:25;98251.84;;;-1.22;85.90
20710;BME280;10516;51.518;9.864;2022-12-11T02:42:53;98235.81;;;-1.34;86.25
20710;BME280;10516;51.518;9.864;2022-12-11T02:45:21;98244.59;;;-1.41;87.07
20710;BME280;10516;51.518;9.864;2022-12-11T02:47:48;98230.31;;;-1.18;86.94
20710;BME280;10516;51.518;9.864;2022-12-11T02:50:17;98236.69;;;-0.44;88.72
20710;BME280;10516;51.518;9.864;2022-12-11T02:52:45;98246.25;;;0.44;90.33
20710;BME280;10516;51.518;9.864;2022-12-11T02:55:13;98236.41;;;-0.55;85.70
20710;BME280;10516;51.518;9.864;2022-12-11T02:57:47;98229.22;;;-1.30;86.43
20710;BME280;10516;51.518;9.864;2022-12-11T03:00:18;98225.06;;;0.39;90.59
20710;BME280;10516;51.518;9.864;2022-12-11T03:02:44;98219.56;;;-0.40;85.79
20710;BME280;10516;51.518;9.864;2022-12-11T03:05:12;98242.50;;;-0.01;87.41
20710;BME280;10516;51.518;9.864;2022-12-11T03:07:40;98232.56;;;0.81;88.96
20710;BME280;10516;51.518;9.864;2022-12-11T03:10:09;98240.25;;;0.50;86.99
20710;BME280;10516;51.518;9.864;2022-12-11T03:12:37;98244.13;;;0.93;86.61
20710;BME280;10516;51.518;9.864;2022-12-11T03:15:07;98241.06;;;1.22;87.16
20710;BME280;10516;51.518;9.864;2022-12-11T03:23:17;98243.59;;;-0.30;82.99
20710;BME280;10516;51.518;9.864;2022-12-11T03:28:17;98226.03;;;0.25;85.08
20710;BME280;10516;51.518;9.864;2022-12-11T03:30:45;98214.53;;;0.26;85.56
20710;BME280;10516;51.518;9.864;2022-12-11T03:33:16;98243.75;;;0.10;85.56
20710;BME280;10516;51.518;9.864;2022-12-11T03:35:53;98230.44;;;0.11;87.84
20710;BME280;10516;51.518;9.864;2022-12-11T03:38:23;98213.84;;;-0.09;86.42
20710;BME280;10516;51.518;9.864;2022-12-11T03:40:54;98248.03;;;-0.24;85.18
20710;BME280;10516;51.518;9.864;2022-12-11T03:43:22;98240.03;;;-0.16;85.85
20710;BME280;10516;51.518;9.864;2022-12-11T03:45:49;98231.41;;;-0.50;84.89
20710;BME280;10516;51.518;9.864;2022-12-11T03:48:17;98252.13;;;-0.15;87.84
20710;BME280;10516;51.518;9.864;2022-12-11T03:50:44;98229.38;;;-0.48;88.22
20710;BME280;10516;51.518;9.864;2022-12-11T03:53:11;98239.81;;;-0.21;84.60
20710;BME280;10516;51.518;9.864;2022-12-11T03:55:38;98246.00;;;0.13;88.98
20710;BME280;10516;51.518;9.864;2022-12-11T03:58:04;98234.34;;;-0.60;85.39
20710;BME280;10516;51.518;9.864;2022-12-11T04:00:30;98222.28;;;-0.89;85.70
20710;BME280;10516;51.518;9.864;2022-12-11T04:02:56;98214.03;;;-0.04;90.19
20710;BME280;10516;51.518;9.864;2022-12-11T04:05:53;98224.44;;;0.30;85.61
20710;BME280;10516;51.518;9.864;2022-12-11T04:08:20;98240.81;;;-0.15;86.59
20710;BME280;10516;51.518;9.864;2022-12-11T04:10:46;98234.59;;;0.66;88.73
20710;BME280;10516;51.518;9.864;2022-12-11T04:13:11;98218.81;;;0.53;88.78
20710;BME280;10516;51.518;9.864;2022-12-11T04:15:38;98227.53;;;0.93;87.30
20710;BME280;10516;51.518;9.864;2022-12-11T04:18:04;98235.78;;;0.63;84.97
20710;BME280;10516;51.518;9.864;2022-12-11T04:20:48;98211.56;;;0.94;87.00
20710;BME280;10516;51.518;9.864;2022-12-11T04:23:35;98233.16;;;0.70;86.50
20710;BME280;10516;51.518;9.864;2022-12-11T04:26:19;98226.47;;;0.28;84.93
20710;BME280;10516;51.518;9.864;2022-12-11T04:28:46;98221.38;;;0.20;84.95
20710;BME280;10516;51.518;9.864;2022-12-11T04:31:13;98236.00;;;0.62;84.90
20710;BME280;10516;51.518;9.864;2022-12-11T04:33:39;98236.59;;;0.64;85.89
20710;BME280;10516;51.518;9.864;2022-12-11T04:36:05;98223.09;;;-0.07;84.64
20710;BME280;10516;51.518;9.864;2022-12-11T04:38:31;98233.88;;;-0.98;84.11
20710;BME280;10516;51.518;9.864;2022-12-11T04:41:01;98222.13;;;-1.08;85.68
20710;BME280;10516;51.518;9.864;2022-12-11T04:43:27;98241.38;;;-1.22;85.40
20710;BME280;10516;51.518;9.864;2022-12-11T04:46:10;98242.78;;;-1.41;85.69
20710;BME280;10516;51.518;9.864;2022-12-11T04:48:36;98226.66;;;-1.44;86.76
20710;BME280;10516;51.518;9.864;2022-12-11T04:51:02;98214.31;;;-1.72;85.50
20710;BME280;10516;51.518;9.864;2022-12-11T04:53:28;98222.69;;;-0.85;86.92
20710;BME280;10516;51.518;9.864;2022-12-11T04:55:54;98229.03;;;-0.73;85.63
20710;BME280;10516;51.518;9.864;2022-12-11T04:58:20;98208.78;;;-1.13;84.62
20710;BME280;10516;51.518;9.864;2022-12-11T05:00:45;98225.16;;;-1.32;84.96
20710;BME280;10516;51.518;9.864;2022-12-11T05:03:11;98226.66;;;-1.44;85.87
20710;BME280;10516;51.518;9.864;2022-12-11T05:05:37;98196.94;;;-0.41;90.62
20710;BME280;10516;51.518;9.864;2022-12-11T05:08:03;98220.47;;;0.67;89.05
20710;BME280;10516;51.518;9.864;2022-12-11T05:10:28;98198.47;;;-0.19;86.04
20710;BME280;10516;51.518;9.864;2022-12-11T05:12:54;98168.75;;;0.61;87.82
20710;BME280;10516;51.518;9.864;2022-12-11T05:15:19;98209.97;;;0.73;87.52
20710;BME280;10516;51.518;9.864;2022-12-11T05:17:44;98186.53;;;-0.21;85.19
20710;BME280;10516;51.518;9.864;2022-12-11T05:20:10;98199.34;;;0.02;85.61
20710;BME280;10516;51.518;9.864;2022-12-11T05:22:36;98204.66;;;-0.26;85.18
20710;BME280;10516;51.518;9.864;2022-12-11T05:25:02;98201.25;;;-0.27;85.68
20710;BME280;10516;51.518;9.864;2022-12-11T05:27:28;98209.97;;;-0.13;87.69
20710;BME280;10516;51.518;9.864;2022-12-11T05:29:53;98192.91;;;0.11;85.88
20710;BME280;10516;51.518;9.864;2022-12-11T05:32:18;98196.63;;;-0.65;84.94
20710;BME280;10516;51.518;9.864;2022-12-11T05:34:44;98206.41;;;-1.08;85.77
20710;BME280;10516;51.518;9.864;2022-12-11T05:37:09;98188.25;;;-1.37;85.23
20710;BME280;10516;51.518;9.864;2022-12-11T05:39:35;98211.13;;;-1.46;85.21
20710;BME280;10516;51.518;9.864;2022-12-11T05:42:01;98216.19;;;-0.96;88.17
20710;BME280;10516;51.518;9.864;2022-12-11T05:44:26;98213.97;;;0.37;89.50
20710;BME280;10516;51.518;9.864;2022-12-11T05:46:51;98205.31;;;0.56;88.29
20710;BME280;10516;51.518;9.864;2022-12-11T05:49:17;98172.25;;;-0.66;85.73
20710;BME280;10516;51.518;9.864;2022-12-11T05:51:43;98204.34;;;-0.57;85.84
20710;BME280;10516;51.518;9.864;2022-12-11T05:54:09;98206.91;;;0.50;88.45
20710;BME280;10516;51.518;9.864;2022-12-11T05:56:35;98192.56;;;0.59;87.24
20710;BME280;10516;51.518;9.864;2022-12-11T05:59:03;98211.13;;;0.32;87.08
20710;BME280;10516;51.518;9.864;2022-12-11T06:01:35;98197.63;;;0.48;87.49
20710;BME280;10516;51.518;9.864;2022-12-11T06:04:02;98201.28;;;-0.95;83.16
20710;BME280;10516;51.518;9.864;2022-12-11T06:06:28;98196.13;;;-1.37;85.77
20710;BME280;10516;51.518;9.864;2022-12-11T06:08:55;98199.63;;;-1.52;85.79
20710;BME280;10516;51.518;9.864;2022-12-11T06:11:22;98187.56;;;-0.63;89.97
20710;BME280;10516;51.518;9.864;2022-12-11T06:13:47;98189.34;;;-0.29;86.65
20710;BME280;10516;51.518;9.864;2022-12-11T06:16:13;98200.88;;;-0.17;85.48
20710;BME280;10516;51.518;9.864;2022-12-11T06:18:40;98176.00;;;0.33;88.50
20710;BME280;10516;51.518;9.864;2022-12-11T06:21:16;98195.63;;;0.89;87.19
20710;BME280;10516;51.518;9.864;2022-12-11T06:23:44;98202.97;;;0.00;84.22
20710;BME280;10516;51.518;9.864;2022-12-11T06:26:10;98175.94;;;0.00;87.87
20710;BME280;10516;51.518;9.864;2022-12-11T06:28:36;98196.19;;;0.39;86.22
20710;BME280;10516;51.518;9.864;2022-12-11T06:31:02;98166.53;;;0.71;86.78
20710;BME280;10516;51.518;9.864;2022-12-11T06:33:28;98170.34;;;0.95;85.93
20710;BME280;10516;51.518;9.864;2022-12-11T06:35:54;98152.59;;;0.70;85.80
20710;BME280;10516;51.518;9.864;2022-12-11T06:38:21;98176.00;;;0.20;83.35
20710;BME280;10516;51.518;9.864;2022-12-11T06:40:53;98168.47;;;-0.57;83.88
20710;BME280;10516;51.518;9.864;2022-12-11T06:43:18;98172.00;;;-0.71;85.54
20710;BME280;10516;51.518;9.864;2022-12-11T06:45:44;98185.47;;;-1.57;85.18
20710;BME280;10516;51.518;9.864;2022-12-11T06:48:09;98177.75;;;-1.65;85.56
20710;BME280;10516;51.518;9.864;2022-12-11T06:50:37;98192.28;;;-1.63;86.32
20710;BME280;10516;51.518;9.864;2022-12-11T06:53:02;98182.94;;;-1.72;86.91
20710;BME280;10516;51.518;9.864;2022-12-11T06:55:28;98197.50;;;-1.63;86.82
20710;BME280;10516;51.518;9.864;2022-12-11T06:57:53;98182.63;;;-0.86;90.24
20710;BME280;10516;51.518;9.864;2022-12-11T07:00:19;98201.78;;;0.10;90.23
20710;BME280;10516;51.518;9.864;2022-12-11T07:02:44;98175.97;;;0.07;88.74
20710;BME280;10516;51.518;9.864;2022-12-11T07:05:09;98188.03;;;0.01;86.62
20710;BME280;10516;51.518;9.864;2022-12-11T07:07:35;98208.28;;;-1.02;85.59
20710;BME280;10516;51.518;9.864;2022-12-11T07:10:00;98203.84;;;-1.02;86.95
20710;BME280;10516;51.518;9.864;2022-12-11T07:12:26;98199.38;;;0.15;89.79
20710;BME280;10516;51.518;9.864;2022-12-11T07:14:51;98198.56;;;0.21;88.29
20710;BME280;10516;51.518;9.864;2022-12-11T07:17:16;98194.19;;;0.54;87.40
20710;BME280;10516;51.518;9.864;2022-12-11T07:19:43;98204.25;;;0.31;86.46
20710;BME280;10516;51.518;9.864;2022-12-11T07:22:08;98184.09;;;0.51;86.57
20710;BME280;10516;51.518;9.864;2022-12-11T07:24:34;98188.50;;;-0.36;86.60
20710;BME280;10516;51.518;9.864;2022-12-11T07:26:59;98206.38;;;-0.53;85.68
20710;BME280;10516;51.518;9.864;2022-12-11T07:29:25;98210.06;;;-0.75;86.16
20710;BME280;10516;51.518;9.864;2022-12-11T07:31:50;98211.53;;;-1.49;85.90
20710;BME280;10516;51.518;9.864;2022-12-11T07:34:15;98218.31;;;-1.55;87.25
20710;BME280;10516;51.518;9.864;2022-12-11T07:36:41;98195.03;;;-1.22;88.25
20710;BME280;10516;51.518;9.864;2022-12-11T07:39:10;98205.00;;;-1.11;87.26
20710;BME280;10516;51.518;9.864;2022-12-11T07:41:35;98199.75;;;-1.38;86.74
20710;BME280;10516;51.518;9.864;2022-12-11T07:44:01;98181.31;;;-1.24;88.16
20710;BME280;10516;51.518;9.864;2022-12-11T07:46:28;98190.81;;;-0.20;89.85
20710;BME280;10516;51.518;9.864;2022-12-11T07:48:54;98201.03;;;0.55;88.16
20710;BME280;10516;51.518;9.864;2022-12-11T07:51:26;98186.09;;;0.42;87.87
20710;BME280;10516;51.518;9.864;2022-12-11T07:54:14;98207.09;;;0.36;85.10
20710;BME280;10516;51.518;9.864;2022-12-11T07:56:41;98201.59;;;-0.77;84.81
20710;BME280;10516;51.518;9.864;2022-12-11T07:59:07;98222.44;;;0.39;88.09
20710;BME280;10516;51.518;9.864;2022-12-11T08:01:34;98207.34;;;-0.95;84.43
20710;BME280;10516;51.518;9.864;2022-12-11T08:04:01;98222.94;;;-0.05;89.13
20710;BME280;10516;51.518;9.864;2022-12-11T08:06:31;98202.81;;;0.09;86.73
20710;BME280;10516;51.518;9.864;2022-12-11T08:08:58;98209.28;;;-0.35;88.46
20710;BME280;10516;51.518;9.864;2022-12-11T08:11:25;98212.69;;;-0.75;85.07
20710;BME280;10516;51.518;9.864;2022-12-11T08:13:51;98178.53;;;-0.54;88.65
20710;BME280;10516;51.518;9.864;2022-12-11T08:16:17;98211.19;;;-0.56;85.73
20710;BME280;10516;51.518;9.864;2022-12-11T08:18:44;98212.03;;;-1.11;85.76
20710;BME280;10516;51.518;9.864;2022-12-11T08:21:15;98209.56;;;-1.19;86.57
20710;BME280;10516;51.518;9.864;2022-12-11T08:23:41;98211.50;;;-0.72;87.28
20710;BME280;10516;51.518;9.864;2022-12-11T08:26:09;98203.97;;;-0.07;89.00
20710;BME280;10516;51.518;9.864;2022-12-11T08:28:35;98202.63;;;-0.71;84.76
20710;BME280;10516;51.518;9.864;2022-12-11T08:31:06;98205.56;;;-1.15;86.30
20710;BME280;10516;51.518;9.864;2022-12-11T08:33:32;98210.75;;;0.41;89.35
20710;BME280;10516;51.518;9.864;2022-12-11T08:36:02;98213.16;;;-0.31;85.48
20710;BME280;10516;51.518;9.864;2022-12-11T08:38:28;98214.53;;;-0.28;89.02
20710;BME280;10516;51.518;9.864;2022-12-11T08:40:53;98214.97;;;-0.65;86.92
20710;BME280;10516;51.518;9.864;2022-12-11T08:43:19;98204.47;;;-1.27;84.65
20710;BME280;10516;51.518;9.864;2022-12-11T08:45:45;98215.66;;;-1.12;86.44
20710;BME280;10516;51.518;9.864;2022-12-11T08:48:10;98212.56;;;-0.95;86.17
20710;BME280;10516;51.518;9.864;2022-12-11T08:50:36;98214.28;;;0.08;89.73
20710;BME280;10516;51.518;9.864;2022-12-11T08:53:01;98205.16;;;-0.10;86.74
20710;BME280;10516;51.518;9.864;2022-12-11T08:55:26;98212.81;;;0.79;87.42
20710;BME280;10516;51.518;9.864;2022-12-11T08:57:52;98198.25;;;0.69;86.39
20710;BME280;10516;51.518;9.864;2022-12-11T09:00:17;98221.28;;;0.74;85.19
20710;BME280;10516;51.518;9.864;2022-12-11T09:02:43;98206.13;;;0.76;86.32
20710;BME280;10516;51.518;9.864;2022-12-11T09:05:08;98207.34;;;0.93;85.91
20710;BME280;10516;51.518;9.864;2022-12-11T09:07:35;98209.13;;;1.06;85.81
20710;BME280;10516;51.518;9.864;2022-12-11T09:10:02;98214.78;;;1.22;85.44
20710;BME280;10516;51.518;9.864;2022-12-11T09:12:28;98214.19;;;1.07;85.39
20710;BME280;10516;51.518;9.864;2022-12-11T09:14:53;98192.88;;;-0.03;85.46
20710;BME280;10516;51.518;9.864;2022-12-11T09:17:19;98202.25;;;-0.68;85.00
20710;BME280;10516;51.518;9.864;2022-12-11T09:19:44;98207.53;;;0.52;88.12
20710;BME280;10516;51.518;9.864;2022-12-11T09:22:09;98199.19;;;0.23;84.86
20710;BME280;10516;51.518;9.864;2022-12-11T09:24:37;98196.03;;;-0.27;86.61
20710;BME280;10516;51.518;9.864;2022-12-11T09:27:03;98200.75;;;-0.03;86.36
20710;BME280;10516;51.518;9.864;2022-12-11T09:29:29;98199.81;;;0.38;87.99
20710;BME280;10516;51.518;9.864;2022-12-11T09:31:54;98176.50;;;-0.18;86.35
20710;BME280;10516;51.518;9.864;2022-12-11T09:34:19;98184.81;;;-0.01;87.30
20710;BME280;10516;51.518;9.864;2022-12-11T09:36:45;98172.00;;;0.63;87.28
20710;BME280;10516;51.518;9.864;2022-12-11T09:39:12;98193.16;;;0.94;86.73
20710;BME280;10516;51.518;9.864;2022-12-11T09:44:37;98196.63;;;0.88;86.47
20710;BME280;10516;51.518;9.864;2022-12-11T09:47:19;98195.03;;;0.67;87.33
20710;BME280;10516;51.518;9.864;2022-12-11T09:49:47;98186.53;;;0.85;86.22
20710;BME280;10516;51.518;9.864;2022-12-11T09:52:30;98176.41;;;0.95;86.46
20710;BME280;10516;51.518;9.864;2022-12-11T09:55:01;98182.47;;;0.30;87.79
20710;BME280;10516;51.518;9.864;2022-12-11T09:57:50;98194.78;;;0.36;86.69
20710;BME280;10516;51.518;9.864;2022-12-11T10:00:39;98175.81;;;0.54;87.01
20710;BME280;10516;51.518;9.864;2022-12-11T10:14:19;98196.38;;;1.22;85.83
20710;BME280;10516;51.518;9.864;2022-12-11T10:16:59;98180.25;;;0.99;85.71
20710;BME280;10516;51.518;9.864;2022-12-11T10:19:29;98187.50;;;1.23;85.46
20710;BME280;10516;51.518;9.864;2022-12-11T10:21:56;98195.56;;;1.35;85.41
20710;BME280;10516;51.518;9.864;2022-12-11T10:26:55;98198.03;;;0.97;84.70
20710;BME280;10516;51.518;9.864;2022-12-11T10:29:22;98189.94;;;1.12;85.92
20710;BME280;10516;51.518;9.864;2022-12-11T10:31:57;98185.06;;;1.22;86.24
20710;BME280;10516;51.518;9.864;2022-12-11T10:36:54;98170.78;;;0.85;84.22
20710;BME280;10516;51.518;9.864;2022-12-11T10:39:21;98169.16;;;0.51;84.54
20710;BME280;10516;51.518;9.864;2022-12-11T10:41:51;98195.00;;;1.07;84.33
20710;BME280;10516;51.518;9.864;2022-12-11T10:44:23;98164.09;;;0.96;83.65
20710;BME280;10516;51.518;9.864;2022-12-11T10:49:35;98184.69;;;0.79;83.74
20710;BME280;10516;51.518;9.864;2022-12-11T10:52:18;98176.38;;;1.21;84.02
20710;BME280;10516;51.518;9.864;2022-12-11T10:54:46;98190.97;;;0.52;83.58
20710;BME280;10516;51.518;9.864;2022-12-11T10:57:26;98159.22;;;0.99;84.35
20710;BME280;10516;51.518;9.864;2022-12-11T10:59:53;98182.84;;;1.25;84.03
20710;BME280;10516;51.518;9.864;2022-12-11T11:02:24;98181.41;;;1.29;81.59
20710;BME280;10516;51.518;9.864;2022-12-11T11:04:51;98187.13;;;0.61;82.86
20710;BME280;10516;51.518;9.864;2022-12-11T11:09:42;98148.53;;;0.55;81.72
20710;BME280;10516;51.518;9.864;2022-12-11T11:12:23;98165.31;;;0.60;83.35
20710;BME280;10516;51.518;9.864;2022-12-11T11:15:03;98161.41;;;0.04;83.42
20710;BME280;10516;51.518;9.864;2022-12-11T11:17:39;98157.69;;;-0.21;84.24
20710;BME280;10516;51.518;9.864;2022-12-11T11:20:12;98146.16;;;-0.81;84.71
20710;BME280;10516;51.518;9.864;2022-12-11T11:22:44;98130.38;;;0.34;86.86
20710;BME280;10516;51.518;9.864;2022-12-11T11:25:19;98147.28;;;1.10;86.14
20710;BME280;10516;51.518;9.864;2022-12-11T11:30:21;98149.53;;;1.06;85.48
20710;BME280;10516;51.518;9.864;2022-12-11T11:32:58;98139.19;;;1.24;85.17
20710;BME280;10516;51.518;9.864;2022-12-11T11:35:28;98139.66;;;0.89;82.77
20710;BME280;10516;51.518;9.864;2022-12-11T11:38:17;98112.97;;;0.92;83.17
20710;BME280;10516;51.518;9.864;2022-12-11T11:43:43;98127.75;;;0.53;84.49
20710;BME280;10516;51.518;9.864;2022-12-11T11:46:19;98133.81;;;0.54;84.86
20710;BME280;10516;51.518;9.864;2022-12-11T11:48:59;98128.13;;;0.76;85.54
20710;BME280;10516;51.518;9.864;2022-12-11T11:51:37;98133.19;;;0.91;85.50
20710;BME280;10516;51.518;9.864;2022-12-11T11:54:35;98117.84;;;0.36;85.96
20710;BME280;10516;51.518;9.864;2022-12-11T11:57:14;98115.34;;;-0.25;83.82
20710;BME280;10516;51.518;9.864;2022-12-11T11:59:45;98120.69;;;0.28;86.10
20710;BME280;10516;51.518;9.864;2022-12-11T12:02:14;98104.28;;;-0.20;84.18
20710;BME280;10516;51.518;9.864;2022-12-11T12:04:40;98121.53;;;-0.93;83.80
20710;BME280;10516;51.518;9.864;2022-12-11T12:10:14;98109.75;;;0.05;84.63
20710;BME280;10516;51.518;9.864;2022-12-11T12:13:38;98101.28;;;0.29;86.50
20710;BME280;10516;51.518;9.864;2022-12-11T12:15:57;98093.63;;;0.53;85.00
20710;BME280;10516;51.518;9.864;2022-12-11T12:18:40;98120.66;;;0.87;86.54
20710;BME280;10516;51.518;9.864;2022-12-11T12:21:33;98128.81;;;1.36;85.86
20710;BME280;10516;51.518;9.864;2022-12-11T12:27:22;98125.03;;;1.12;84.86
20710;BME280;10516;51.518;9.864;2022-12-11T12:30:01;98102.44;;;1.11;86.05
20710;BME280;10516;51.518;9.864;2022-12-11T12:38:05;98107.03;;;1.29;80.65
20710;BME280;10516;51.518;9.864;2022-12-11T12:48:30;98100.63;;;0.92;79.89
20710;BME280;10516;51.518;9.864;2022-12-11T12:51:03;98106.13;;;0.84;79.48
20710;BME280;10516;51.518;9.864;2022-12-11T12:53:32;98108.13;;;0.82;80.58
20710;BME280;10516;51.518;9.864;2022-12-11T12:55:59;98115.19;;;0.88;81.48
20710;BME280;10516;51.518;9.864;2022-12-11T13:01:19;98114.00;;;0.71;82.82
20710;BME280;10516;51.518;9.864;2022-12-11T13:03:55;98111.75;;;0.94;83.10
20710;BME280;10516;51.518;9.864;2022-12-11T13:06:44;98100.91;;;0.38;83.15
20710;BME280;10516;51.518;9.864;2022-12-11T13:09:26;98106.16;;;0.45;83.37
20710;BME280;10516;51.518;9.864;2022-12-11T13:11:54;98091.22;;;0.26;82.83
20710;BME280;10516;51.518;9.864;2022-12-11T13:14:30;98097.66;;;0.23;83.84
20710;BME280;10516;51.518;9.864;2022-12-11T13:17:23;98114.56;;;-0.12;83.41
20710;BME280;10516;51.518;9.864;2022-12-11T13:20:01;98113.09;;;-1.22;84.22
20710;BME280;10516;51.518;9.864;2022-12-11T13:22:33;98121.47;;;-0.58;87.50
20710;BME280;10516;51.518;9.864;2022-12-11T13:25:00;98104.44;;;-0.82;85.02
20710;BME280;10516;51.518;9.864;2022-12-11T13:27:38;98119.03;;;0.07;88.94
20710;BME280;10516;51.518;9.864;2022-12-11T13:32:38;98112.56;;;0.95;85.75
20710;BME280;10516;51.518;9.864;2022-12-11T13:35:05;98104.31;;;-0.01;83.06
20710;BME280;10516;51.518;9.864;2022-12-11T13:37:40;98110.69;;;-0.83;84.49
20710;BME280;10516;51.518;9.864;2022-12-11T13:40:21;98107.25;;;-1.18;85.71
20710;BME280;10516;51.518;9.864;2022-12-11T13:42:49;98123.25;;;-1.06;86.24
20710;BME280;10516;51.518;9.864;2022-12-11T13:45:26;98078.00;;;-1.62;85.42
20710;BME280;10516;51.518;9.864;2022-12-11T13:47:55;98120.97;;;-1.71;86.26
20710;BME280;10516;51.518;9.864;2022-12-11T13:50:25;98103.47;;;-1.92;86.27
20710;BME280;10516;51.518;9.864;2022-12-11T13:52:57;98126.94;;;-1.56;87.88
20710;BME280;10516;51.518;9.864;2022-12-11T13:55:33;98108.94;;;-1.66;85.58
20710;BME280;10516;51.518;9.864;2022-12-11T13:57:59;98113.44;;;-1.60;87.09
20710;BME280;10516;51.518;9.864;2022-12-11T14:00:27;98114.09;;;-2.00;86.35
20710;BME280;10516;51.518;9.864;2022-12-11T14:02:59;98089.75;;;-2.00;86.88
20710;BME280;10516;51.518;9.864;2022-12-11T14:05:25;98122.34;;;-2.17;86.11
20710;BME280;10516;51.518;9.864;2022-12-11T14:07:54;98127.91;;;-1.85;86.37
20710;BME280;10516;51.518;9.864;2022-12-11T14:10:29;98138.34;;;-1.64;86.61
20710;BME280;10516;51.518;9.864;2022-12-11T14:12:56;98132.63;;;-1.46;85.53
20710;BME280;10516;51.518;9.864;2022-12-11T14:15:24;98127.41;;;-1.74;86.09
20710;BME280;10516;51.518;9.864;2022-12-11T14:17:50;98108.34;;;-1.89;87.23
20710;BME280;10516;51.518;9.864;2022-12-11T14:20:18;98140.84;;;-1.98;85.57
20710;BME280;10516;51.518;9.864;2022-12-11T14:22:44;98128.31;;;-2.23;85.83
20710;BME280;10516;51.518;9.864;2022-12-11T14:25:21;98119.53;;;-1.74;85.63
20710;BME280;10516;51.518;9.864;2022-12-11T14:27:53;98142.06;;;-1.52;85.48
20710;BME280;10516;51.518;9.864;2022-12-11T14:30:30;98142.13;;;-1.45;85.12
20710;BME280;10516;51.518;9.864;2022-12-11T14:32:59;98146.47;;;-1.24;84.98